Terminal Aerodrome Forecast
Issued by NWS

Home | Current Version | Previous Version | Text Only | Print | Product List | Glossary On
Versions: 1 2 3 4 5 6 7 8 9 10 11 12 13
000
FTUS45 KPIH 060520
TAFSUN
TAF
KSUN 060520Z 0606/0706 30007KT P6SM BKN110 BKN200
     FM061800 15008KT P6SM VCTS SCT050 BKN070CB BKN100
     FM070200 30007KT P6SM VCSH SCT030 BKN050 OVC070=

USA.gov is the U.S. government's official web portal to all federal, state and local government web resources and services.